sensor_id;sensor_type;location;lat;lon;timestamp;P1;durP1;ratioP1;P2;durP2;ratioP2
13849;SDS011;6995;52.618;13.488;2022-08-11T00:00:06;23.40;;;22.20;;
13849;SDS011;6995;52.618;13.488;2022-08-11T00:02:38;23.00;;;21.27;;
13849;SDS011;6995;52.618;13.488;2022-08-11T00:05:10;21.85;;;20.75;;
13849;SDS011;6995;52.618;13.488;2022-08-11T00:07:46;22.33;;;20.92;;
13849;SDS011;6995;52.618;13.488;2022-08-11T00:10:18;22.92;;;21.65;;
13849;SDS011;6995;52.618;13.488;2022-08-11T00:12:58;22.25;;;20.95;;
13849;SDS011;6995;52.618;13.488;2022-08-11T00:15:27;21.20;;;20.05;;
13849;SDS011;6995;52.618;13.488;2022-08-11T00:18:02;23.80;;;22.65;;
13849;SDS011;6995;52.618;13.488;2022-08-11T00:20:29;22.00;;;20.92;;
13849;SDS011;6995;52.618;13.488;2022-08-11T00:23:01;22.25;;;21.23;;
13849;SDS011;6995;52.618;13.488;2022-08-11T00:25:30;22.05;;;20.85;;
13849;SDS011;6995;52.618;13.488;2022-08-11T00:28:04;22.92;;;21.63;;
13849;SDS011;6995;52.618;13.488;2022-08-11T00:30:49;21.02;;;19.92;;
13849;SDS011;6995;52.618;13.488;2022-08-11T00:33:16;22.23;;;20.70;;
13849;SDS011;6995;52.618;13.488;2022-08-11T00:35:44;23.63;;;22.13;;
13849;SDS011;6995;52.618;13.488;2022-08-11T00:38:11;23.02;;;21.70;;
13849;SDS011;6995;52.618;13.488;2022-08-11T00:43:23;24.20;;;22.45;;
13849;SDS011;6995;52.618;13.488;2022-08-11T01:00:32;23.67;;;22.27;;
13849;SDS011;6995;52.618;13.488;2022-08-11T01:03:18;22.52;;;21.25;;
13849;SDS011;6995;52.618;13.488;2022-08-11T01:06:04;23.48;;;22.33;;
13849;SDS011;6995;52.618;13.488;2022-08-11T01:17:08;22.77;;;21.52;;
13849;SDS011;6995;52.618;13.488;2022-08-11T01:34:07;22.08;;;20.63;;
13849;SDS011;6995;52.618;13.488;2022-08-11T01:40:28;25.45;;;23.80;;
13849;SDS011;6995;52.618;13.488;2022-08-11T01:46:10;24.33;;;23.10;;
13849;SDS011;6995;52.618;13.488;2022-08-11T01:48:52;21.83;;;20.60;;
13849;SDS011;6995;52.618;13.488;2022-08-11T01:51:44;22.45;;;20.83;;
13849;SDS011;6995;52.618;13.488;2022-08-11T01:54:29;22.80;;;21.42;;
13849;SDS011;6995;52.618;13.488;2022-08-11T01:59:40;21.45;;;20.30;;
13849;SDS011;6995;52.618;13.488;2022-08-11T02:02:32;21.52;;;20.20;;
13849;SDS011;6995;52.618;13.488;2022-08-11T02:10:34;23.58;;;22.20;;
13849;SDS011;6995;52.618;13.488;2022-08-11T02:28:16;25.00;;;23.70;;
13849;SDS011;6995;52.618;13.488;2022-08-11T02:31:10;22.83;;;21.52;;
13849;SDS011;6995;52.618;13.488;2022-08-11T02:33:59;23.65;;;22.35;;
13849;SDS011;6995;52.618;13.488;2022-08-11T02:37:23;22.95;;;21.60;;
13849;SDS011;6995;52.618;13.488;2022-08-11T02:50:55;25.42;;;24.23;;
13849;SDS011;6995;52.618;13.488;2022-08-11T02:53:28;26.35;;;24.98;;
13849;SDS011;6995;52.618;13.488;2022-08-11T02:56:20;25.70;;;24.48;;
13849;SDS011;6995;52.618;13.488;2022-08-11T03:13:11;24.55;;;23.15;;
13849;SDS011;6995;52.618;13.488;2022-08-11T03:16:23;24.17;;;22.80;;
13849;SDS011;6995;52.618;13.488;2022-08-11T03:19:15;22.30;;;21.20;;
13849;SDS011;6995;52.618;13.488;2022-08-11T03:22:32;23.85;;;22.60;;
13849;SDS011;6995;52.618;13.488;2022-08-11T03:30:17;23.70;;;22.40;;
13849;SDS011;6995;52.618;13.488;2022-08-11T03:35:43;21.23;;;19.92;;
13849;SDS011;6995;52.618;13.488;2022-08-11T03:38:31;22.98;;;21.52;;
13849;SDS011;6995;52.618;13.488;2022-08-11T03:55:37;27.02;;;25.05;;
13849;SDS011;6995;52.618;13.488;2022-08-11T04:06:16;23.40;;;21.85;;
13849;SDS011;6995;52.618;13.488;2022-08-11T04:09:00;22.92;;;21.83;;
13849;SDS011;6995;52.618;13.488;2022-08-11T04:18:05;24.52;;;22.50;;
13849;SDS011;6995;52.618;13.488;2022-08-11T04:20:55;22.92;;;21.15;;
13849;SDS011;6995;52.618;13.488;2022-08-11T04:23:55;23.50;;;22.13;;
13849;SDS011;6995;52.618;13.488;2022-08-11T04:26:54;25.27;;;23.85;;
13849;SDS011;6995;52.618;13.488;2022-08-11T04:29:45;23.70;;;22.20;;
13849;SDS011;6995;52.618;13.488;2022-08-11T04:32:33;25.35;;;23.88;;
13849;SDS011;6995;52.618;13.488;2022-08-11T04:48:55;24.02;;;22.83;;
13849;SDS011;6995;52.618;13.488;2022-08-11T04:52:15;23.73;;;22.48;;
13849;SDS011;6995;52.618;13.488;2022-08-11T04:58:16;25.17;;;23.70;;
13849;SDS011;6995;52.618;13.488;2022-08-11T05:10:27;23.65;;;22.25;;
13849;SDS011;6995;52.618;13.488;2022-08-11T05:13:02;24.77;;;23.02;;
13849;SDS011;6995;52.618;13.488;2022-08-11T05:16:00;22.90;;;20.92;;
13849;SDS011;6995;52.618;13.488;2022-08-11T05:18:55;22.35;;;20.92;;
13849;SDS011;6995;52.618;13.488;2022-08-11T05:21:41;26.08;;;24.27;;
13849;SDS011;6995;52.618;13.488;2022-08-11T05:24:29;22.38;;;20.88;;
13849;SDS011;6995;52.618;13.488;2022-08-11T05:27:19;23.15;;;21.85;;
13849;SDS011;6995;52.618;13.488;2022-08-11T05:30:13;25.98;;;24.20;;
13849;SDS011;6995;52.618;13.488;2022-08-11T05:32:59;26.55;;;24.83;;
13849;SDS011;6995;52.618;13.488;2022-08-11T05:36:35;24.58;;;23.08;;
13849;SDS011;6995;52.618;13.488;2022-08-11T05:38:51;26.67;;;25.27;;
13849;SDS011;6995;52.618;13.488;2022-08-11T05:41:42;29.55;;;27.38;;
13849;SDS011;6995;52.618;13.488;2022-08-11T05:44:30;27.00;;;25.48;;
13849;SDS011;6995;52.618;13.488;2022-08-11T05:47:23;26.42;;;24.88;;
13849;SDS011;6995;52.618;13.488;2022-08-11T05:50:13;30.58;;;28.40;;
13849;SDS011;6995;52.618;13.488;2022-08-11T05:52:59;23.58;;;22.08;;
13849;SDS011;6995;52.618;13.488;2022-08-11T05:55:45;21.92;;;20.70;;
13849;SDS011;6995;52.618;13.488;2022-08-11T05:58:32;22.27;;;20.17;;
13849;SDS011;6995;52.618;13.488;2022-08-11T06:01:05;22.35;;;21.02;;
13849;SDS011;6995;52.618;13.488;2022-08-11T06:03:32;21.30;;;20.05;;
13849;SDS011;6995;52.618;13.488;2022-08-11T06:06:23;24.23;;;22.63;;
13849;SDS011;6995;52.618;13.488;2022-08-11T06:08:54;23.42;;;21.95;;
13849;SDS011;6995;52.618;13.488;2022-08-11T06:11:21;25.70;;;23.98;;
13849;SDS011;6995;52.618;13.488;2022-08-11T06:13:48;25.38;;;23.73;;
13849;SDS011;6995;52.618;13.488;2022-08-11T06:16:22;25.23;;;23.55;;
13849;SDS011;6995;52.618;13.488;2022-08-11T06:18:52;24.23;;;22.33;;
13849;SDS011;6995;52.618;13.488;2022-08-11T06:21:18;22.75;;;20.95;;
13849;SDS011;6995;52.618;13.488;2022-08-11T06:23:49;22.90;;;21.45;;
13849;SDS011;6995;52.618;13.488;2022-08-11T06:26:34;21.13;;;19.70;;
13849;SDS011;6995;52.618;13.488;2022-08-11T06:29:05;23.48;;;21.80;;
13849;SDS011;6995;52.618;13.488;2022-08-11T06:31:32;23.17;;;21.73;;
13849;SDS011;6995;52.618;13.488;2022-08-11T06:36:46;24.42;;;23.13;;
13849;SDS011;6995;52.618;13.488;2022-08-11T06:39:26;24.80;;;22.98;;
13849;SDS011;6995;52.618;13.488;2022-08-11T06:44:53;23.08;;;21.40;;
13849;SDS011;6995;52.618;13.488;2022-08-11T06:47:29;24.67;;;23.02;;
13849;SDS011;6995;52.618;13.488;2022-08-11T06:49:58;23.58;;;22.13;;
13849;SDS011;6995;52.618;13.488;2022-08-11T06:52:54;25.13;;;23.58;;
13849;SDS011;6995;52.618;13.488;2022-08-11T06:55:23;26.30;;;24.58;;
13849;SDS011;6995;52.618;13.488;2022-08-11T06:58:15;22.95;;;21.42;;
13849;SDS011;6995;52.618;13.488;2022-08-11T07:01:02;28.00;;;25.83;;
13849;SDS011;6995;52.618;13.488;2022-08-11T07:03:45;28.40;;;26.80;;
13849;SDS011;6995;52.618;13.488;2022-08-11T07:06:27;30.10;;;28.00;;
13849;SDS011;6995;52.618;13.488;2022-08-11T07:12:39;32.40;;;30.40;;
13849;SDS011;6995;52.618;13.488;2022-08-11T07:15:44;32.05;;;30.35;;
13849;SDS011;6995;52.618;13.488;2022-08-11T07:18:22;31.45;;;29.80;;
13849;SDS011;6995;52.618;13.488;2022-08-11T07:21:10;34.15;;;32.17;;
13849;SDS011;6995;52.618;13.488;2022-08-11T07:24:12;27.30;;;25.77;;
13849;SDS011;6995;52.618;13.488;2022-08-11T07:27:00;28.90;;;27.35;;
13849;SDS011;6995;52.618;13.488;2022-08-11T07:29:50;26.42;;;24.38;;
13849;SDS011;6995;52.618;13.488;2022-08-11T07:32:23;26.73;;;24.80;;
13849;SDS011;6995;52.618;13.488;2022-08-11T07:38:13;25.95;;;24.45;;
13849;SDS011;6995;52.618;13.488;2022-08-11T07:40:43;25.90;;;24.10;;
13849;SDS011;6995;52.618;13.488;2022-08-11T07:43:10;23.55;;;21.95;;
13849;SDS011;6995;52.618;13.488;2022-08-11T07:45:48;23.13;;;21.95;;
13849;SDS011;6995;52.618;13.488;2022-08-11T07:48:35;23.80;;;22.10;;
13849;SDS011;6995;52.618;13.488;2022-08-11T07:51:20;21.98;;;20.23;;
13849;SDS011;6995;52.618;13.488;2022-08-11T07:54:05;22.73;;;21.25;;
13849;SDS011;6995;52.618;13.488;2022-08-11T07:56:32;22.08;;;20.65;;
13849;SDS011;6995;52.618;13.488;2022-08-11T07:59:03;22.70;;;21.23;;
13849;SDS011;6995;52.618;13.488;2022-08-11T08:01:48;20.48;;;19.20;;
13849;SDS011;6995;52.618;13.488;2022-08-11T08:04:33;21.60;;;20.05;;
13849;SDS011;6995;52.618;13.488;2022-08-11T08:07:19;19.65;;;18.40;;
13849;SDS011;6995;52.618;13.488;2022-08-11T08:10:07;21.90;;;20.48;;
13849;SDS011;6995;52.618;13.488;2022-08-11T08:12:55;18.95;;;17.50;;
13849;SDS011;6995;52.618;13.488;2022-08-11T08:15:40;19.15;;;17.85;;
13849;SDS011;6995;52.618;13.488;2022-08-11T08:18:25;21.38;;;19.95;;
13849;SDS011;6995;52.618;13.488;2022-08-11T08:21:05;21.90;;;20.42;;
13849;SDS011;6995;52.618;13.488;2022-08-11T08:23:44;22.98;;;21.65;;
13849;SDS011;6995;52.618;13.488;2022-08-11T08:26:12;20.15;;;18.95;;
13849;SDS011;6995;52.618;13.488;2022-08-11T08:29:00;23.60;;;21.80;;
13849;SDS011;6995;52.618;13.488;2022-08-11T08:31:46;20.08;;;18.52;;
13849;SDS011;6995;52.618;13.488;2022-08-11T08:34:13;39.10;;;37.13;;
13849;SDS011;6995;52.618;13.488;2022-08-11T08:36:43;19.65;;;18.42;;
13849;SDS011;6995;52.618;13.488;2022-08-11T08:39:12;20.13;;;18.33;;
13849;SDS011;6995;52.618;13.488;2022-08-11T08:41:41;19.45;;;18.00;;
13849;SDS011;6995;52.618;13.488;2022-08-11T08:44:08;19.33;;;17.55;;
13849;SDS011;6995;52.618;13.488;2022-08-11T08:46:36;18.70;;;17.33;;
13849;SDS011;6995;52.618;13.488;2022-08-11T08:49:13;20.75;;;19.23;;
13849;SDS011;6995;52.618;13.488;2022-08-11T08:51:42;19.13;;;17.58;;
13849;SDS011;6995;52.618;13.488;2022-08-11T08:54:11;18.70;;;17.80;;
13849;SDS011;6995;52.618;13.488;2022-08-11T08:56:41;20.38;;;18.50;;
13849;SDS011;6995;52.618;13.488;2022-08-11T08:59:10;19.23;;;17.92;;
13849;SDS011;6995;52.618;13.488;2022-08-11T09:01:40;20.35;;;18.73;;
13849;SDS011;6995;52.618;13.488;2022-08-11T09:04:12;18.83;;;17.63;;
13849;SDS011;6995;52.618;13.488;2022-08-11T09:06:40;19.38;;;17.90;;
13849;SDS011;6995;52.618;13.488;2022-08-11T09:09:10;19.77;;;18.50;;
13849;SDS011;6995;52.618;13.488;2022-08-11T09:11:37;19.95;;;18.52;;
13849;SDS011;6995;52.618;13.488;2022-08-11T09:14:26;19.70;;;17.70;;
13849;SDS011;6995;52.618;13.488;2022-08-11T09:17:18;19.45;;;17.88;;
13849;SDS011;6995;52.618;13.488;2022-08-11T09:19:45;19.23;;;18.23;;
13849;SDS011;6995;52.618;13.488;2022-08-11T09:22:12;21.33;;;20.02;;
13849;SDS011;6995;52.618;13.488;2022-08-11T09:25:00;23.80;;;22.33;;
13849;SDS011;6995;52.618;13.488;2022-08-11T09:27:45;24.02;;;22.55;;
13849;SDS011;6995;52.618;13.488;2022-08-11T09:30:11;25.88;;;24.00;;
13849;SDS011;6995;52.618;13.488;2022-08-11T09:32:40;24.67;;;23.23;;
13849;SDS011;6995;52.618;13.488;2022-08-11T09:35:07;21.05;;;19.42;;
13849;SDS011;6995;52.618;13.488;2022-08-11T09:37:33;21.17;;;19.98;;
13849;SDS011;6995;52.618;13.488;2022-08-11T09:40:19;21.20;;;19.83;;
13849;SDS011;6995;52.618;13.488;2022-08-11T09:42:55;20.83;;;19.27;;
13849;SDS011;6995;52.618;13.488;2022-08-11T09:45:43;19.70;;;18.60;;
13849;SDS011;6995;52.618;13.488;2022-08-11T09:48:14;18.48;;;17.58;;
13849;SDS011;6995;52.618;13.488;2022-08-11T09:50:43;17.80;;;16.73;;
13849;SDS011;6995;52.618;13.488;2022-08-11T09:53:12;16.25;;;15.32;;
13849;SDS011;6995;52.618;13.488;2022-08-11T09:55:43;18.52;;;17.35;;
13849;SDS011;6995;52.618;13.488;2022-08-11T09:58:13;17.58;;;16.40;;
13849;SDS011;6995;52.618;13.488;2022-08-11T10:00:40;19.33;;;18.08;;
13849;SDS011;6995;52.618;13.488;2022-08-11T10:03:25;19.42;;;18.23;;
13849;SDS011;6995;52.618;13.488;2022-08-11T10:05:59;19.60;;;18.33;;
13849;SDS011;6995;52.618;13.488;2022-08-11T10:08:46;18.83;;;17.73;;
13849;SDS011;6995;52.618;13.488;2022-08-11T10:11:16;21.85;;;20.50;;
13849;SDS011;6995;52.618;13.488;2022-08-11T10:13:47;23.40;;;21.67;;
13849;SDS011;6995;52.618;13.488;2022-08-11T10:16:36;22.38;;;21.17;;
13849;SDS011;6995;52.618;13.488;2022-08-11T10:19:05;18.17;;;17.17;;
13849;SDS011;6995;52.618;13.488;2022-08-11T10:21:43;22.85;;;21.23;;
13849;SDS011;6995;52.618;13.488;2022-08-11T10:24:33;21.27;;;19.88;;
13849;SDS011;6995;52.618;13.488;2022-08-11T10:27:18;22.33;;;20.88;;
13849;SDS011;6995;52.618;13.488;2022-08-11T10:29:43;22.60;;;21.05;;
13849;SDS011;6995;52.618;13.488;2022-08-11T10:32:28;21.98;;;20.67;;
13849;SDS011;6995;52.618;13.488;2022-08-11T10:35:14;21.50;;;19.85;;
13849;SDS011;6995;52.618;13.488;2022-08-11T10:37:42;19.33;;;18.15;;
13849;SDS011;6995;52.618;13.488;2022-08-11T10:40:13;19.98;;;18.77;;
13849;SDS011;6995;52.618;13.488;2022-08-11T10:42:43;18.15;;;16.92;;
13849;SDS011;6995;52.618;13.488;2022-08-11T10:45:31;19.25;;;18.00;;
13849;SDS011;6995;52.618;13.488;2022-08-11T10:48:17;18.83;;;17.55;;
13849;SDS011;6995;52.618;13.488;2022-08-11T10:50:46;19.02;;;17.83;;
13849;SDS011;6995;52.618;13.488;2022-08-11T10:53:33;18.15;;;17.10;;
13849;SDS011;6995;52.618;13.488;2022-08-11T10:56:22;18.85;;;17.75;;
13849;SDS011;6995;52.618;13.488;2022-08-11T10:59:07;16.90;;;15.75;;
13849;SDS011;6995;52.618;13.488;2022-08-11T11:01:38;18.60;;;17.60;;
13849;SDS011;6995;52.618;13.488;2022-08-11T11:09:49;18.42;;;17.30;;
13849;SDS011;6995;52.618;13.488;2022-08-11T11:12:18;16.98;;;16.17;;
13849;SDS011;6995;52.618;13.488;2022-08-11T11:15:08;19.77;;;18.58;;
13849;SDS011;6995;52.618;13.488;2022-08-11T11:18:02;17.27;;;16.08;;
13849;SDS011;6995;52.618;13.488;2022-08-11T11:20:46;18.40;;;17.48;;
13849;SDS011;6995;52.618;13.488;2022-08-11T11:23:42;17.40;;;16.30;;
13849;SDS011;6995;52.618;13.488;2022-08-11T11:29:32;18.92;;;17.58;;
13849;SDS011;6995;52.618;13.488;2022-08-11T11:37:45;16.48;;;15.32;;
13849;SDS011;6995;52.618;13.488;2022-08-11T11:40:15;18.38;;;17.30;;
13849;SDS011;6995;52.618;13.488;2022-08-11T11:42:46;18.42;;;17.42;;
13849;SDS011;6995;52.618;13.488;2022-08-11T11:45:15;20.13;;;19.02;;
13849;SDS011;6995;52.618;13.488;2022-08-11T11:47:43;20.40;;;19.27;;
13849;SDS011;6995;52.618;13.488;2022-08-11T11:50:09;20.35;;;18.92;;
13849;SDS011;6995;52.618;13.488;2022-08-11T11:52:37;23.05;;;21.88;;
13849;SDS011;6995;52.618;13.488;2022-08-11T11:55:04;22.75;;;21.38;;
13849;SDS011;6995;52.618;13.488;2022-08-11T11:57:31;23.70;;;22.38;;
13849;SDS011;6995;52.618;13.488;2022-08-11T12:00:17;27.83;;;26.42;;
13849;SDS011;6995;52.618;13.488;2022-08-11T12:03:02;24.63;;;23.27;;
13849;SDS011;6995;52.618;13.488;2022-08-11T12:05:34;27.30;;;25.35;;
13849;SDS011;6995;52.618;13.488;2022-08-11T12:08:01;24.38;;;22.92;;
13849;SDS011;6995;52.618;13.488;2022-08-11T12:10:37;23.45;;;22.15;;
13849;SDS011;6995;52.618;13.488;2022-08-11T12:13:36;23.02;;;21.60;;
13849;SDS011;6995;52.618;13.488;2022-08-11T12:16:07;23.98;;;22.20;;
13849;SDS011;6995;52.618;13.488;2022-08-11T12:18:34;24.20;;;22.42;;
13849;SDS011;6995;52.618;13.488;2022-08-11T12:21:01;22.95;;;21.52;;
13849;SDS011;6995;52.618;13.488;2022-08-11T12:23:28;23.70;;;22.42;;
13849;SDS011;6995;52.618;13.488;2022-08-11T12:26:13;21.88;;;18.60;;
13849;SDS011;6995;52.618;13.488;2022-08-11T12:29:00;19.55;;;18.20;;
13849;SDS011;6995;52.618;13.488;2022-08-11T12:31:29;17.67;;;16.67;;
13849;SDS011;6995;52.618;13.488;2022-08-11T12:34:03;18.00;;;16.48;;
13849;SDS011;6995;52.618;13.488;2022-08-11T12:36:34;17.90;;;16.65;;
13849;SDS011;6995;52.618;13.488;2022-08-11T12:39:03;22.15;;;20.60;;
13849;SDS011;6995;52.618;13.488;2022-08-11T12:42:03;24.17;;;22.45;;
13849;SDS011;6995;52.618;13.488;2022-08-11T12:44:47;18.02;;;17.13;;
13849;SDS011;6995;52.618;13.488;2022-08-11T12:47:32;19.85;;;18.67;;
13849;SDS011;6995;52.618;13.488;2022-08-11T12:50:18;26.58;;;25.17;;
13849;SDS011;6995;52.618;13.488;2022-08-11T12:53:02;22.35;;;20.65;;
13849;SDS011;6995;52.618;13.488;2022-08-11T12:55:31;19.52;;;18.33;;
13849;SDS011;6995;52.618;13.488;2022-08-11T12:58:16;17.63;;;16.48;;
13849;SDS011;6995;52.618;13.488;2022-08-11T13:00:43;15.63;;;14.70;;
13849;SDS011;6995;52.618;13.488;2022-08-11T13:03:28;16.60;;;15.52;;
13849;SDS011;6995;52.618;13.488;2022-08-11T13:06:14;18.67;;;17.77;;
13849;SDS011;6995;52.618;13.488;2022-08-11T13:08:40;18.85;;;17.85;;
13849;SDS011;6995;52.618;13.488;2022-08-11T13:11:07;19.10;;;18.00;;
13849;SDS011;6995;52.618;13.488;2022-08-11T13:13:58;19.50;;;18.33;;
13849;SDS011;6995;52.618;13.488;2022-08-11T13:16:26;21.30;;;20.30;;
13849;SDS011;6995;52.618;13.488;2022-08-11T13:18:55;21.63;;;19.90;;
13849;SDS011;6995;52.618;13.488;2022-08-11T13:21:25;20.17;;;19.08;;
13849;SDS011;6995;52.618;13.488;2022-08-11T13:23:52;14.57;;;13.32;;
13849;SDS011;6995;52.618;13.488;2022-08-11T13:26:20;15.85;;;14.95;;
13849;SDS011;6995;52.618;13.488;2022-08-11T13:28:47;14.35;;;13.40;;
13849;SDS011;6995;52.618;13.488;2022-08-11T13:31:18;14.10;;;13.20;;
13849;SDS011;6995;52.618;13.488;2022-08-11T13:33:45;14.18;;;13.38;;
13849;SDS011;6995;52.618;13.488;2022-08-11T13:36:21;14.27;;;13.32;;
13849;SDS011;6995;52.618;13.488;2022-08-11T13:38:52;13.95;;;12.98;;
13849;SDS011;6995;52.618;13.488;2022-08-11T13:41:19;15.13;;;14.20;;
13849;SDS011;6995;52.618;13.488;2022-08-11T13:44:06;13.77;;;12.93;;
13849;SDS011;6995;52.618;13.488;2022-08-11T13:46:33;14.25;;;13.40;;
13849;SDS011;6995;52.618;13.488;2022-08-11T13:49:00;14.50;;;13.68;;
13849;SDS011;6995;52.618;13.488;2022-08-11T13:51:26;13.52;;;12.82;;
13849;SDS011;6995;52.618;13.488;2022-08-11T13:53:58;16.00;;;15.00;;
13849;SDS011;6995;52.618;13.488;2022-08-11T13:56:26;18.77;;;17.35;;
13849;SDS011;6995;52.618;13.488;2022-08-11T13:58:53;17.23;;;16.23;;
13849;SDS011;6995;52.618;13.488;2022-08-11T14:01:20;15.18;;;14.27;;
13849;SDS011;6995;52.618;13.488;2022-08-11T14:03:51;12.85;;;12.02;;
13849;SDS011;6995;52.618;13.488;2022-08-11T14:06:18;13.30;;;12.25;;
13849;SDS011;6995;52.618;13.488;2022-08-11T14:08:45;14.82;;;13.68;;
13849;SDS011;6995;52.618;13.488;2022-08-11T14:11:15;15.02;;;13.98;;
13849;SDS011;6995;52.618;13.488;2022-08-11T14:14:00;13.05;;;12.05;;
13849;SDS011;6995;52.618;13.488;2022-08-11T14:16:32;14.30;;;13.50;;
13849;SDS011;6995;52.618;13.488;2022-08-11T14:19:06;12.85;;;12.07;;
13849;SDS011;6995;52.618;13.488;2022-08-11T14:21:37;13.38;;;12.48;;
13849;SDS011;6995;52.618;13.488;2022-08-11T14:24:24;13.52;;;12.50;;
13849;SDS011;6995;52.618;13.488;2022-08-11T14:26:51;14.48;;;13.80;;
13849;SDS011;6995;52.618;13.488;2022-08-11T14:29:22;13.55;;;12.57;;
13849;SDS011;6995;52.618;13.488;2022-08-11T14:31:55;13.93;;;12.93;;
13849;SDS011;6995;52.618;13.488;2022-08-11T14:34:25;14.40;;;13.40;;
13849;SDS011;6995;52.618;13.488;2022-08-11T14:36:55;14.80;;;13.93;;
13849;SDS011;6995;52.618;13.488;2022-08-11T14:39:23;13.93;;;13.15;;
13849;SDS011;6995;52.618;13.488;2022-08-11T14:41:56;13.65;;;12.85;;
13849;SDS011;6995;52.618;13.488;2022-08-11T14:44:47;14.73;;;13.82;;
13849;SDS011;6995;52.618;13.488;2022-08-11T14:47:34;14.90;;;13.95;;
13849;SDS011;6995;52.618;13.488;2022-08-11T14:50:01;14.60;;;13.70;;
13849;SDS011;6995;52.618;13.488;2022-08-11T14:52:29;14.65;;;13.85;;
13849;SDS011;6995;52.618;13.488;2022-08-11T14:54:57;15.10;;;13.82;;
13849;SDS011;6995;52.618;13.488;2022-08-11T14:57:41;16.27;;;14.95;;
13849;SDS011;6995;52.618;13.488;2022-08-11T15:00:09;15.32;;;14.48;;
13849;SDS011;6995;52.618;13.488;2022-08-11T15:02:39;13.93;;;12.93;;
13849;SDS011;6995;52.618;13.488;2022-08-11T15:05:25;13.05;;;12.40;;
13849;SDS011;6995;52.618;13.488;2022-08-11T15:07:52;13.23;;;12.38;;
13849;SDS011;6995;52.618;13.488;2022-08-11T15:10:19;14.50;;;13.70;;
13849;SDS011;6995;52.618;13.488;2022-08-11T15:12:45;14.98;;;13.95;;
13849;SDS011;6995;52.618;13.488;2022-08-11T15:15:12;15.20;;;14.18;;
13849;SDS011;6995;52.618;13.488;2022-08-11T15:17:58;13.38;;;12.68;;
13849;SDS011;6995;52.618;13.488;2022-08-11T15:20:28;13.95;;;13.07;;
13849;SDS011;6995;52.618;13.488;2022-08-11T15:23:13;14.00;;;12.88;;
13849;SDS011;6995;52.618;13.488;2022-08-11T15:25:58;15.80;;;14.60;;
13849;SDS011;6995;52.618;13.488;2022-08-11T15:28:28;12.75;;;11.98;;
13849;SDS011;6995;52.618;13.488;2022-08-11T15:31:15;15.45;;;14.65;;
13849;SDS011;6995;52.618;13.488;2022-08-11T15:34:02;14.13;;;13.07;;
13849;SDS011;6995;52.618;13.488;2022-08-11T15:36:48;13.52;;;12.80;;
13849;SDS011;6995;52.618;13.488;2022-08-11T15:39:37;14.60;;;13.63;;
13849;SDS011;6995;52.618;13.488;2022-08-11T15:42:32;13.85;;;13.00;;
13849;SDS011;6995;52.618;13.488;2022-08-11T15:45:22;31.17;;;28.40;;
13849;SDS011;6995;52.618;13.488;2022-08-11T15:48:09;13.13;;;12.43;;
13849;SDS011;6995;52.618;13.488;2022-08-11T15:50:39;13.48;;;12.38;;
13849;SDS011;6995;52.618;13.488;2022-08-11T15:53:30;13.10;;;12.45;;
13849;SDS011;6995;52.618;13.488;2022-08-11T15:56:05;12.50;;;11.70;;
13849;SDS011;6995;52.618;13.488;2022-08-11T15:58:33;13.70;;;12.85;;
13849;SDS011;6995;52.618;13.488;2022-08-11T16:01:23;12.95;;;12.25;;
13849;SDS011;6995;52.618;13.488;2022-08-11T16:04:09;13.55;;;12.73;;
13849;SDS011;6995;52.618;13.488;2022-08-11T16:09:13;13.10;;;12.40;;
13849;SDS011;6995;52.618;13.488;2022-08-11T16:11:41;14.27;;;13.38;;
13849;SDS011;6995;52.618;13.488;2022-08-11T16:14:08;12.90;;;11.65;;
13849;SDS011;6995;52.618;13.488;2022-08-11T16:16:54;13.90;;;13.00;;
13849;SDS011;6995;52.618;13.488;2022-08-11T16:19:22;13.57;;;12.68;;
13849;SDS011;6995;52.618;13.488;2022-08-11T16:21:51;14.88;;;13.88;;
13849;SDS011;6995;52.618;13.488;2022-08-11T16:24:19;13.93;;;13.05;;
13849;SDS011;6995;52.618;13.488;2022-08-11T16:26:48;14.00;;;13.30;;
13849;SDS011;6995;52.618;13.488;2022-08-11T16:29:16;15.70;;;14.73;;
13849;SDS011;6995;52.618;13.488;2022-08-11T16:31:43;14.48;;;13.68;;
13849;SDS011;6995;52.618;13.488;2022-08-11T16:34:30;13.52;;;12.82;;
13849;SDS011;6995;52.618;13.488;2022-08-11T16:37:16;13.63;;;12.55;;
13849;SDS011;6995;52.618;13.488;2022-08-11T16:40:02;15.25;;;14.07;;
13849;SDS011;6995;52.618;13.488;2022-08-11T16:42:29;15.20;;;14.13;;
13849;SDS011;6995;52.618;13.488;2022-08-11T16:45:14;13.95;;;13.15;;
13849;SDS011;6995;52.618;13.488;2022-08-11T16:47:59;12.60;;;12.00;;
13849;SDS011;6995;52.618;13.488;2022-08-11T16:50:26;13.27;;;12.38;;
13849;SDS011;6995;52.618;13.488;2022-08-11T16:52:53;12.98;;;12.18;;
13849;SDS011;6995;52.618;13.488;2022-08-11T16:55:19;15.95;;;14.48;;
13849;SDS011;6995;52.618;13.488;2022-08-11T16:57:45;14.23;;;13.30;;
13849;SDS011;6995;52.618;13.488;2022-08-11T17:00:30;14.65;;;13.85;;
13849;SDS011;6995;52.618;13.488;2022-08-11T17:02:58;14.38;;;13.35;;
13849;SDS011;6995;52.618;13.488;2022-08-11T17:05:49;15.07;;;14.18;;
13849;SDS011;6995;52.618;13.488;2022-08-11T17:08:38;14.38;;;13.20;;
13849;SDS011;6995;52.618;13.488;2022-08-11T17:11:32;14.02;;;13.13;;
13849;SDS011;6995;52.618;13.488;2022-08-11T17:14:28;13.75;;;12.95;;
13849;SDS011;6995;52.618;13.488;2022-08-11T17:16:59;14.05;;;13.13;;
13849;SDS011;6995;52.618;13.488;2022-08-11T17:19:27;13.38;;;12.48;;
13849;SDS011;6995;52.618;13.488;2022-08-11T17:21:56;12.90;;;12.20;;
13849;SDS011;6995;52.618;13.488;2022-08-11T17:24:42;14.13;;;12.70;;
13849;SDS011;6995;52.618;13.488;2022-08-11T17:27:11;14.75;;;13.85;;
13849;SDS011;6995;52.618;13.488;2022-08-11T17:29:45;14.30;;;12.93;;
13849;SDS011;6995;52.618;13.488;2022-08-11T17:32:24;16.08;;;15.20;;
13849;SDS011;6995;52.618;13.488;2022-08-11T17:35:16;18.85;;;17.75;;
13849;SDS011;6995;52.618;13.488;2022-08-11T17:38:04;14.07;;;13.13;;
13849;SDS011;6995;52.618;13.488;2022-08-11T17:40:37;17.38;;;16.23;;
13849;SDS011;6995;52.618;13.488;2022-08-11T17:43:07;19.00;;;17.67;;
13849;SDS011;6995;52.618;13.488;2022-08-11T17:45:52;19.55;;;18.40;;
13849;SDS011;6995;52.618;13.488;2022-08-11T17:48:33;17.65;;;16.77;;
13849;SDS011;6995;52.618;13.488;2022-08-11T17:51:06;17.70;;;16.77;;
13849;SDS011;6995;52.618;13.488;2022-08-11T17:54:01;16.58;;;15.68;;
13849;SDS011;6995;52.618;13.488;2022-08-11T17:56:47;16.27;;;15.48;;
13849;SDS011;6995;52.618;13.488;2022-08-11T17:59:33;16.80;;;15.80;;
13849;SDS011;6995;52.618;13.488;2022-08-11T18:02:38;18.17;;;17.17;;
13849;SDS011;6995;52.618;13.488;2022-08-11T18:08:45;16.27;;;15.38;;
13849;SDS011;6995;52.618;13.488;2022-08-11T18:11:31;16.23;;;15.10;;
13849;SDS011;6995;52.618;13.488;2022-08-11T18:14:16;17.20;;;16.15;;
13849;SDS011;6995;52.618;13.488;2022-08-11T18:17:02;15.85;;;14.60;;
13849;SDS011;6995;52.618;13.488;2022-08-11T18:19:47;16.38;;;15.43;;
13849;SDS011;6995;52.618;13.488;2022-08-11T18:22:32;16.35;;;15.43;;
13849;SDS011;6995;52.618;13.488;2022-08-11T18:25:21;18.38;;;17.27;;
13849;SDS011;6995;52.618;13.488;2022-08-11T18:28:10;18.52;;;17.63;;
13849;SDS011;6995;52.618;13.488;2022-08-11T18:30:59;19.90;;;18.35;;
13849;SDS011;6995;52.618;13.488;2022-08-11T18:33:47;17.70;;;16.50;;
13849;SDS011;6995;52.618;13.488;2022-08-11T18:36:39;16.77;;;15.55;;